Time;durP1;ratioP1;P1;durP2;ratioP2;P2;SDS_P1;SDS_P2;PMS_P1;PMS_P2;Temp;Humidity;BMP_temperature;BMP_pressure;BME280_temperature;BME280_humidity;BME280_pressure;Samples;Min_cycle;Max_cycle;Signal;HPM_P1;HPM_P2
2021/09/01 00:01:04;;;;;;;11.93;6.93;;;18.30;80.60;;;;;;5053361;28;20501;-73
2021/09/01 00:03:30;;;;;;;8.83;6.33;;;18.30;80.90;;;;;;5053411;28;20449;-73
2021/09/01 00:05:57;;;;;;;11.77;7.50;;;18.30;81.40;;;;;;5053475;28;20468;-73
2021/09/01 00:08:24;;;;;;;13.30;7.67;;;18.20;81.70;;;;;;5053517;28;20449;-73
2021/09/01 00:10:51;;;;;;;12.17;7.30;;;18.20;82.20;;;;;;5052954;28;21014;-73
2021/09/01 00:13:18;;;;;;;12.70;7.67;;;18.20;82.50;;;;;;5053353;28;20835;-73
2021/09/01 00:15:46;;;;;;;8.57;7.50;;;18.10;82.70;;;;;;5053369;28;20441;-73
2021/09/01 00:18:12;;;;;;;13.47;7.80;;;18.00;83.00;;;;;;5053571;28;20461;-73
2021/09/01 00:20:39;;;;;;;15.60;8.03;;;18.00;83.30;;;;;;5053253;28;20481;-73
2021/09/01 00:23:06;;;;;;;9.43;7.20;;;17.90;83.80;;;;;;5053277;28;20449;-73
2021/09/01 00:25:33;;;;;;;15.17;7.47;;;17.90;84.50;;;;;;5052801;28;20457;-73
2021/09/01 00:27:59;;;;;;;8.50;7.20;;;17.80;84.90;;;;;;5053254;28;20445;-73
2021/09/01 00:30:26;;;;;;;16.07;8.33;;;17.80;85.20;;;;;;5053124;28;20441;-73
2021/09/01 00:32:54;;;;;;;17.03;7.97;;;17.80;85.70;;;;;;5052826;28;20986;-73
2021/09/01 00:35:21;;;;;;;11.27;8.20;;;17.80;85.90;;;;;;5053120;28;20441;-73
2021/09/01 00:37:47;;;;;;;13.87;8.17;;;17.80;86.00;;;;;;5053200;28;20446;-73
2021/09/01 00:40:14;;;;;;;15.43;9.20;;;17.80;86.10;;;;;;5053074;28;20817;-73
2021/09/01 00:42:42;;;;;;;14.70;9.10;;;17.80;86.20;;;;;;5053035;28;20833;-73
2021/09/01 00:45:10;;;;;;;18.67;8.70;;;17.90;86.10;;;;;;5053120;28;20468;-73
2021/09/01 00:47:37;;;;;;;9.70;7.50;;;17.90;86.20;;;;;;5053856;28;20445;-72
2021/09/01 00:50:07;;;;;;;13.03;7.77;;;17.90;86.40;;;;;;5056686;28;20495;-72
2021/09/01 00:52:34;;;;;;;13.40;8.30;;;17.90;86.40;;;;;;5056843;28;20473;-73
2021/09/01 00:55:03;;;;;;;12.83;7.77;;;17.90;86.40;;;;;;5056648;28;20564;-73
2021/09/01 00:57:30;;;;;;;8.57;7.47;;;17.90;86.30;;;;;;5056584;28;20457;-73
2021/09/01 00:59:57;;;;;;;9.40;6.80;;;17.90;86.60;;;;;;5056784;28;20440;-73
2021/09/01 01:02:24;;;;;;;12.27;7.30;;;17.90;86.70;;;;;;5056746;28;20473;-73
2021/09/01 01:04:51;;;;;;;10.63;7.00;;;17.90;86.60;;;;;;5056735;28;20456;-73
2021/09/01 01:07:20;;;;;;;12.53;7.33;;;18.00;86.60;;;;;;5056709;28;20437;-73
2021/09/01 01:09:48;;;;;;;10.80;7.97;;;18.00;86.40;;;;;;5056686;28;20531;-73
2021/09/01 01:12:18;;;;;;;13.13;7.90;;;17.90;86.30;;;;;;5056188;28;20475;-73
2021/09/01 01:14:48;;;;;;;11.00;6.60;;;18.00;86.40;;;;;;5056612;28;20528;-73
2021/09/01 01:17:16;;;;;;;10.90;7.70;;;18.00;86.40;;;;;;5056487;28;20449;-73
2021/09/01 01:19:44;;;;;;;18.57;8.43;;;18.00;86.40;;;;;;5056462;28;20449;-73
2021/09/01 01:22:12;;;;;;;16.70;7.40;;;18.00;86.40;;;;;;5057108;28;20493;-73
2021/09/01 01:24:51;;;;;;;15.20;7.53;;;18.00;86.40;;;;;;5056345;28;20449;-73
2021/09/01 01:27:27;;;;;;;12.00;7.10;;;18.00;86.60;;;;;;5056398;28;20422;-73
2021/09/01 01:29:56;;;;;;;12.37;6.40;;;18.00;86.40;;;;;;5056269;28;20472;-73
2021/09/01 01:32:23;;;;;;;8.67;7.17;;;18.00;86.50;;;;;;5056161;28;20460;-72
2021/09/01 01:34:49;;;;;;;9.50;7.13;;;18.00;86.40;;;;;;5056196;28;20449;-72
2021/09/01 01:37:16;;;;;;;9.83;7.00;;;18.00;86.40;;;;;;5056136;28;20449;-72
2021/09/01 01:39:43;;;;;;;14.43;7.93;;;18.00;86.40;;;;;;5056119;28;20429;-73
2021/09/01 01:42:10;;;;;;;8.73;6.70;;;18.00;86.50;;;;;;5055582;28;20496;-73
2021/09/01 01:44:38;;;;;;;11.13;7.00;;;18.00;86.40;;;;;;5056013;28;20449;-73
2021/09/01 01:47:05;;;;;;;13.30;7.10;;;18.00;86.40;;;;;;5055628;28;20448;-72
2021/09/01 01:49:32;;;;;;;12.20;7.10;;;18.00;86.40;;;;;;5055947;28;20449;-73
2021/09/01 01:51:58;;;;;;;11.10;6.50;;;18.00;86.40;;;;;;5055812;28;20461;-74
2021/09/01 01:54:25;;;;;;;13.70;6.77;;;18.00;86.60;;;;;;5055532;28;20954;-72
2021/09/01 01:56:52;;;;;;;9.53;6.00;;;18.10;86.70;;;;;;5055755;28;20457;-72
2021/09/01 01:59:19;;;;;;;11.60;6.60;;;18.10;86.60;;;;;;5055618;28;20446;-72
2021/09/01 02:01:47;;;;;;;8.80;5.90;;;18.10;86.60;;;;;;5054873;28;20490;-73
2021/09/01 02:04:14;;;;;;;9.23;6.10;;;18.10;86.60;;;;;;5055585;28;20453;-73
2021/09/01 02:06:41;;;;;;;10.43;6.90;;;18.10;86.60;;;;;;5055675;28;20448;-73
2021/09/01 02:09:07;;;;;;;15.73;6.90;;;18.10;86.50;;;;;;5055234;28;20441;-73
2021/09/01 02:11:34;;;;;;;11.23;6.83;;;18.10;86.30;;;;;;5055082;28;20477;-73
2021/09/01 02:14:01;;;;;;;9.20;6.43;;;18.10;86.20;;;;;;5055445;28;20446;-73
2021/09/01 02:16:28;;;;;;;11.50;6.30;;;18.10;86.20;;;;;;5055128;28;20967;-73
2021/09/01 02:18:56;;;;;;;10.67;6.73;;;18.10;86.20;;;;;;5055380;28;20450;-73
2021/09/01 02:21:23;;;;;;;12.87;6.40;;;18.00;86.20;;;;;;5054910;28;21007;-73
2021/09/01 02:23:49;;;;;;;9.00;6.10;;;18.00;86.40;;;;;;5055290;28;20450;-72
2021/09/01 02:26:16;;;;;;;12.60;6.63;;;18.00;86.40;;;;;;5055218;28;20445;-72
2021/09/01 02:28:43;;;;;;;8.13;5.40;;;18.00;86.40;;;;;;5055221;28;20445;-72
2021/09/01 02:31:09;;;;;;;11.47;6.13;;;18.00;86.70;;;;;;5054754;28;20994;-72
2021/09/01 02:33:36;;;;;;;8.20;6.50;;;18.00;86.50;;;;;;5055063;28;20473;-72
2021/09/01 02:36:05;;;;;;;10.83;6.53;;;18.00;86.10;;;;;;5055012;28;20458;-72
2021/09/01 02:38:31;;;;;;;9.77;6.83;;;18.00;86.40;;;;;;5055604;28;20450;-72
2021/09/01 02:40:58;;;;;;;8.17;6.20;;;18.00;86.60;;;;;;5054554;28;20980;-72
2021/09/01 02:43:25;;;;;;;15.73;6.83;;;17.90;86.40;;;;;;5054923;28;20452;-72
2021/09/01 02:45:51;;;;;;;13.57;6.53;;;17.90;86.30;;;;;;5054573;28;20928;-72
2021/09/01 02:48:18;;;;;;;10.20;5.70;;;17.90;86.60;;;;;;5054835;28;20450;-72
2021/09/01 02:50:45;;;;;;;14.40;7.93;;;17.90;87.80;;;;;;5055473;28;20456;-72
2021/09/01 02:53:13;;;;;;;9.90;5.77;;;17.80;87.10;;;;;;5054729;28;20446;-72
2021/09/01 02:55:40;;;;;;;10.00;5.33;;;17.80;87.00;;;;;;5054689;28;20446;-72
2021/09/01 02:58:06;;;;;;;8.50;5.53;;;17.80;86.90;;;;;;5054666;28;20430;-72
2021/09/01 03:00:33;;;;;;;11.00;6.10;;;17.80;86.90;;;;;;5054428;28;20850;-73
2021/09/01 03:03:00;;;;;;;7.87;5.90;;;17.80;86.90;;;;;;5054535;28;20441;-72
2021/09/01 03:05:26;;;;;;;9.87;6.13;;;17.80;87.00;;;;;;5054578;28;20442;-72
2021/09/01 03:07:53;;;;;;;10.90;7.33;;;17.80;87.00;;;;;;5054591;28;20453;-72
2021/09/01 03:10:21;;;;;;;10.93;6.13;;;17.80;86.80;;;;;;5054999;28;20457;-72
2021/09/01 03:12:48;;;;;;;10.13;6.20;;;17.80;86.70;;;;;;5053955;28;20967;-72
2021/09/01 03:15:15;;;;;;;11.17;5.70;;;17.80;87.00;;;;;;5054263;28;20468;-72
2021/09/01 03:17:42;;;;;;;8.77;5.57;;;17.70;87.90;;;;;;5054511;28;20446;-72
2021/09/01 03:20:10;;;;;;;17.70;7.50;;;17.80;87.30;;;;;;5054230;28;20472;-72
2021/09/01 03:22:36;;;;;;;8.30;6.20;;;17.70;87.10;;;;;;5053716;28;20481;-72
2021/09/01 03:25:04;;;;;;;10.90;6.10;;;17.80;87.30;;;;;;5054098;28;20456;-72
2021/09/01 03:27:32;;;;;;;9.27;5.40;;;17.70;87.00;;;;;;5054081;28;20454;-72
2021/09/01 03:29:58;;;;;;;13.37;6.07;;;17.70;86.90;;;;;;5054050;28;20472;-72
2021/09/01 03:32:25;;;;;;;7.87;5.70;;;17.70;87.00;;;;;;5053928;28;20462;-72
2021/09/01 03:34:52;;;;;;;10.47;5.87;;;17.70;87.00;;;;;;5054015;28;20442;-72
2021/09/01 03:37:19;;;;;;;14.03;7.27;;;17.70;87.10;;;;;;5053901;28;20450;-72
2021/09/01 03:39:45;;;;;;;13.13;6.60;;;17.70;87.30;;;;;;5053917;28;20436;-72
2021/09/01 03:42:12;;;;;;;10.83;5.43;;;17.70;87.30;;;;;;5053323;28;20485;-72
2021/09/01 03:44:40;;;;;;;8.70;5.63;;;17.70;87.30;;;;;;5053750;28;20441;-72
2021/09/01 03:47:07;;;;;;;14.20;6.43;;;17.70;87.40;;;;;;5053766;28;20446;-72
2021/09/01 03:49:34;;;;;;;10.17;6.27;;;17.70;87.40;;;;;;5053380;28;20453;-72
2021/09/01 03:52:00;;;;;;;11.73;6.90;;;17.70;87.50;;;;;;5053555;28;20467;-72
2021/09/01 03:54:27;;;;;;;16.23;7.03;;;17.60;87.50;;;;;;5053653;28;20434;-72
2021/09/01 03:56:54;;;;;;;10.47;6.70;;;17.70;87.60;;;;;;5053563;28;20460;-72
2021/09/01 03:59:21;;;;;;;8.53;6.70;;;17.70;87.70;;;;;;5053567;28;20438;-72
2021/09/01 04:01:49;;;;;;;10.87;6.80;;;17.70;87.50;;;;;;5053042;28;21017;-72
2021/09/01 04:04:16;;;;;;;8.43;6.10;;;17.60;87.50;;;;;;5053484;28;20437;-72
2021/09/01 04:06:43;;;;;;;13.27;6.00;;;17.70;87.60;;;;;;5053186;28;20924;-72
2021/09/01 04:09:10;;;;;;;12.63;6.20;;;17.70;87.40;;;;;;5053072;28;20442;-72
2021/09/01 04:11:37;;;;;;;13.03;6.60;;;17.60;87.40;;;;;;5052905;28;20889;-72
2021/09/01 04:14:04;;;;;;;9.73;7.13;;;17.60;87.50;;;;;;5053048;28;20947;-72
2021/09/01 04:16:30;;;;;;;14.30;7.67;;;17.60;87.80;;;;;;5053308;28;20446;-72
2021/09/01 04:18:59;;;;;;;11.93;6.47;;;17.60;88.00;;;;;;5053321;28;20449;-72
2021/09/01 04:21:26;;;;;;;16.90;7.30;;;17.60;88.20;;;;;;5053229;28;20924;-72
2021/09/01 04:23:52;;;;;;;11.10;6.80;;;17.60;88.40;;;;;;5056857;28;20453;-72
2021/09/01 04:26:19;;;;;;;11.50;6.80;;;17.50;88.30;;;;;;5059661;28;20448;-72
2021/09/01 04:28:46;;;;;;;11.83;6.53;;;17.60;88.60;;;;;;5059738;28;20900;-72
2021/09/01 04:31:12;;;;;;;14.17;7.47;;;17.60;88.50;;;;;;5059885;28;20461;-72
2021/09/01 04:33:39;;;;;;;12.40;7.10;;;17.60;88.70;;;;;;5059632;28;20429;-72
2021/09/01 04:36:07;;;;;;;10.53;7.47;;;17.50;88.70;;;;;;5059932;28;20456;-72
2021/09/01 04:38:34;;;;;;;12.27;6.37;;;17.50;88.80;;;;;;5059760;28;20449;-72
2021/09/01 04:41:01;;;;;;;9.70;7.47;;;17.50;88.90;;;;;;5059915;28;20465;-73
2021/09/01 04:43:28;;;;;;;10.67;8.43;;;17.50;88.90;;;;;;5059514;28;20990;-72
2021/09/01 04:45:54;;;;;;;15.67;8.73;;;17.40;88.50;;;;;;5059537;28;20947;-72
2021/09/01 04:48:21;;;;;;;12.67;7.47;;;17.40;88.50;;;;;;5059743;28;20461;-72
2021/09/01 04:50:48;;;;;;;9.63;7.40;;;17.40;88.70;;;;;;5059622;28;20471;-72
2021/09/01 04:53:16;;;;;;;11.80;7.97;;;17.40;88.70;;;;;;5059495;28;20445;-72
2021/09/01 04:55:43;;;;;;;14.57;8.90;;;17.40;88.90;;;;;;5059694;28;20823;-72
2021/09/01 04:58:09;;;;;;;11.37;7.60;;;17.40;88.40;;;;;;5059646;28;20446;-72
2021/09/01 05:00:36;;;;;;;12.10;8.70;;;17.40;87.80;;;;;;5059545;28;20457;-72
2021/09/01 05:03:03;;;;;;;11.80;8.07;;;17.40;87.30;;;;;;5059516;28;20481;-72
2021/09/01 05:05:30;;;;;;;8.83;7.10;;;17.40;87.30;;;;;;5059308;28;20904;-72
2021/09/01 05:07:57;;;;;;;11.17;8.07;;;17.40;86.90;;;;;;5059531;28;20456;-72
2021/09/01 05:10:26;;;;;;;11.23;8.53;;;17.50;87.20;;;;;;5059400;28;20503;-72
2021/09/01 05:12:53;;;;;;;9.90;7.90;;;17.50;87.00;;;;;;5059937;28;20816;-72
2021/09/01 05:15:20;;;;;;;11.70;7.33;;;17.40;86.50;;;;;;5059499;28;20436;-72
2021/09/01 05:17:47;;;;;;;9.67;7.47;;;17.40;86.30;;;;;;5059490;28;20456;-72
2021/09/01 05:20:15;;;;;;;10.97;7.17;;;17.50;84.70;;;;;;5059455;28;20448;-72
2021/09/01 05:22:46;;;;;;;8.80;6.40;;;17.50;84.00;;;;;;5059328;28;20485;-72
2021/09/01 05:25:14;;;;;;;10.87;7.90;;;17.50;84.20;;;;;;5059378;28;20434;-72
2021/09/01 05:27:43;;;;;;;14.83;7.80;;;17.50;84.20;;;;;;5059067;28;20445;-72
2021/09/01 05:30:13;;;;;;;10.57;7.23;;;17.50;84.10;;;;;;5059040;28;20448;-72
2021/09/01 05:32:43;;;;;;;10.33;7.13;;;17.50;84.40;;;;;;5058910;28;20453;-72
2021/09/01 05:35:13;;;;;;;10.10;8.23;;;17.50;84.70;;;;;;5056562;28;20434;-72
2021/09/01 05:37:40;;;;;;;13.33;7.90;;;17.50;84.80;;;;;;5056144;28;20521;-72
2021/09/01 05:40:09;;;;;;;12.67;8.10;;;17.50;84.90;;;;;;5056056;28;20466;-72
2021/09/01 05:42:36;;;;;;;11.47;7.90;;;17.50;85.00;;;;;;5055575;28;21060;-72
2021/09/01 05:45:08;;;;;;;10.03;8.63;;;17.50;85.30;;;;;;5055992;28;20461;-72
2021/09/01 05:47:35;;;;;;;13.70;8.03;;;17.50;85.40;;;;;;5056085;28;20452;-72
2021/09/01 05:50:02;;;;;;;11.60;8.93;;;17.60;85.50;;;;;;5055571;28;20931;-72
2021/09/01 05:52:29;;;;;;;13.63;8.13;;;17.50;85.80;;;;;;5055462;28;20552;-72
2021/09/01 05:54:58;;;;;;;15.40;7.83;;;17.50;86.30;;;;;;5055785;28;20453;-71
2021/09/01 05:57:33;;;;;;;11.17;8.40;;;17.50;86.70;;;;;;5055764;28;20454;-71
2021/09/01 06:00:06;;;;;;;17.70;9.27;;;17.50;86.70;;;;;;5055706;28;20479;-72
2021/09/01 06:02:39;;;;;;;10.90;7.97;;;17.60;87.00;;;;;;5055602;28;20489;-72
2021/09/01 06:05:08;;;;;;;13.07;9.13;;;17.60;87.40;;;;;;5055937;28;20448;-72
2021/09/01 06:07:35;;;;;;;14.40;8.40;;;17.60;87.50;;;;;;5055597;28;20441;-72
2021/09/01 06:10:04;;;;;;;13.73;8.83;;;17.60;87.60;;;;;;5055445;28;20437;-73
2021/09/01 06:12:31;;;;;;;11.13;8.63;;;17.60;87.80;;;;;;5055524;28;20465;-73
2021/09/01 06:14:58;;;;;;;17.20;9.40;;;17.70;88.00;;;;;;5055441;28;20831;-72
2021/09/01 06:17:26;;;;;;;10.77;7.27;;;17.70;88.10;;;;;;5055491;28;20454;-72
2021/09/01 06:19:53;;;;;;;10.20;7.80;;;17.70;88.10;;;;;;5055340;28;20449;-72
2021/09/01 06:22:19;;;;;;;16.70;7.80;;;17.70;88.00;;;;;;5055199;28;20485;-72
2021/09/01 06:24:46;;;;;;;14.67;7.43;;;17.70;87.80;;;;;;5055045;28;20453;-72
2021/09/01 06:27:13;;;;;;;11.17;7.10;;;17.70;87.60;;;;;;5055212;28;20446;-72
2021/09/01 06:29:40;;;;;;;15.13;8.17;;;17.70;87.60;;;;;;5055155;28;20446;-72
2021/09/01 06:32:07;;;;;;;11.30;7.47;;;17.80;88.10;;;;;;5055856;28;20470;-72
2021/09/01 06:34:35;;;;;;;8.83;6.90;;;17.80;87.90;;;;;;5055112;28;20449;-72
2021/09/01 06:37:02;;;;;;;10.60;7.33;;;17.80;87.70;;;;;;5055058;28;20450;-72
2021/09/01 06:39:29;;;;;;;13.00;7.70;;;17.80;87.90;;;;;;5054812;28;20449;-73
2021/09/01 06:41:55;;;;;;;10.30;6.83;;;17.80;87.90;;;;;;5055094;28;20476;-72
2021/09/01 06:44:22;;;;;;;7.47;6.10;;;17.80;88.00;;;;;;5055282;28;20434;-72
2021/09/01 06:46:49;;;;;;;10.40;6.93;;;17.90;88.10;;;;;;5054837;28;20434;-72
2021/09/01 06:49:15;;;;;;;11.50;6.33;;;17.90;88.10;;;;;;5054568;28;20940;-72
2021/09/01 06:51:44;;;;;;;14.53;7.20;;;17.90;87.90;;;;;;5054452;28;20560;-72
2021/09/01 06:54:10;;;;;;;16.10;6.67;;;17.90;87.60;;;;;;5054691;28;20430;-72
2021/09/01 06:56:37;;;;;;;11.80;7.00;;;18.00;87.80;;;;;;5054777;28;20453;-72
2021/09/01 06:59:04;;;;;;;9.27;7.17;;;17.90;87.60;;;;;;5054766;28;20437;-72
2021/09/01 07:01:31;;;;;;;15.03;7.97;;;18.00;87.80;;;;;;5054207;28;20979;-72
2021/09/01 07:03:57;;;;;;;12.03;7.60;;;18.00;87.70;;;;;;5054460;28;20504;-72
2021/09/01 07:06:24;;;;;;;11.50;6.70;;;18.00;87.70;;;;;;5054506;28;20437;-72
2021/09/01 07:08:53;;;;;;;14.43;6.60;;;18.10;87.70;;;;;;5054489;28;20430;-72
2021/09/01 07:11:19;;;;;;;19.13;6.87;;;18.10;87.90;;;;;;5053950;28;20560;-72
2021/09/01 07:13:46;;;;;;;11.10;6.60;;;18.20;87.90;;;;;;5054007;28;20449;-72
2021/09/01 07:16:14;;;;;;;10.83;6.20;;;18.30;88.00;;;;;;5054346;28;20461;-72
2021/09/01 07:18:41;;;;;;;12.03;6.30;;;18.30;87.80;;;;;;5054300;28;20430;-72
2021/09/01 07:21:08;;;;;;;15.07;7.20;;;18.40;87.80;;;;;;5053982;28;20542;-72
2021/09/01 07:23:36;;;;;;;11.47;7.07;;;18.40;86.90;;;;;;5054204;28;20468;-72
2021/09/01 07:26:05;;;;;;;14.67;7.40;;;18.50;85.80;;;;;;5054175;28;20438;-72
2021/09/01 07:28:34;;;;;;;13.30;7.17;;;18.60;85.60;;;;;;5053826;28;20942;-72
2021/09/01 07:31:01;;;;;;;11.60;6.20;;;18.60;85.60;;;;;;5053618;28;20472;-72
2021/09/01 07:33:27;;;;;;;9.37;5.90;;;18.70;85.60;;;;;;5054125;28;20426;-72
2021/09/01 07:35:54;;;;;;;14.20;7.33;;;18.70;85.50;;;;;;5054333;28;20422;-72
2021/09/01 07:38:21;;;;;;;9.57;6.30;;;18.70;85.10;;;;;;5053964;28;20456;-72
2021/09/01 07:40:48;;;;;;;11.77;6.63;;;18.70;85.10;;;;;;5053557;28;20935;-73
2021/09/01 07:43:17;;;;;;;8.60;5.53;;;18.70;84.60;;;;;;5053718;28;20484;-72
2021/09/01 07:45:43;;;;;;;10.80;6.17;;;18.70;84.70;;;;;;5053756;28;20448;-72
2021/09/01 07:48:13;;;;;;;13.07;7.30;;;18.80;85.00;;;;;;5053789;28;20438;-72
2021/09/01 07:50:40;;;;;;;13.40;6.10;;;18.80;85.30;;;;;;5053670;28;20515;-73
2021/09/01 07:53:07;;;;;;;19.07;7.00;;;18.90;84.90;;;;;;5053688;28;20423;-76
2021/09/01 07:55:34;;;;;;;12.40;6.57;;;18.90;85.30;;;;;;5053683;28;20429;-76
2021/09/01 07:58:01;;;;;;;11.47;6.20;;;18.90;84.90;;;;;;5053234;28;20430;-77
2021/09/01 08:00:29;;;;;;;13.40;6.50;;;19.00;84.30;;;;;;5053783;28;20474;-76
2021/09/01 08:02:56;;;;;;;22.10;7.70;;;19.00;84.00;;;;;;5053461;28;20515;-76
2021/09/01 08:05:23;;;;;;;11.23;6.00;;;19.00;83.40;;;;;;5053836;28;20426;-77
2021/09/01 08:07:50;;;;;;;12.17;6.67;;;18.90;82.90;;;;;;5053690;28;20445;-77
2021/09/01 08:10:17;;;;;;;8.23;6.10;;;18.90;83.50;;;;;;5053367;28;20460;-77
2021/09/01 08:12:44;;;;;;;14.90;6.47;;;19.00;83.90;;;;;;5053674;28;20472;-76
2021/09/01 08:15:12;;;;;;;8.57;5.63;;;19.00;83.20;;;;;;5053587;28;20433;-76
2021/09/01 08:17:40;;;;;;;11.00;7.53;;;19.10;82.80;;;;;;5053197;28;20465;-77
2021/09/01 08:20:08;;;;;;;8.43;5.70;;;19.10;82.80;;;;;;5054072;28;20442;-76
2021/09/01 08:22:35;;;;;;;17.90;6.20;;;19.20;82.70;;;;;;5053083;28;20935;-77
2021/09/01 08:25:02;;;;;;;18.83;6.83;;;19.10;82.80;;;;;;5053186;28;20445;-76
2021/09/01 08:27:29;;;;;;;11.07;6.77;;;19.20;82.10;;;;;;5053581;28;20822;-77
2021/09/01 08:29:55;;;;;;;14.00;7.10;;;19.20;82.30;;;;;;5053619;28;20430;-77
2021/09/01 08:32:22;;;;;;;11.93;6.00;;;19.20;82.40;;;;;;5053615;28;20469;-76
2021/09/01 08:34:51;;;;;;;9.03;5.53;;;19.20;81.90;;;;;;5053201;28;20430;-77
2021/09/01 08:37:18;;;;;;;11.03;6.37;;;19.30;81.80;;;;;;5053604;28;20461;-77
2021/09/01 08:39:46;;;;;;;12.33;6.13;;;19.20;81.50;;;;;;5053604;28;20430;-78
2021/09/01 08:42:13;;;;;;;16.30;6.50;;;19.30;81.20;;;;;;5054372;28;20473;-77
2021/09/01 08:44:40;;;;;;;12.17;5.80;;;19.30;81.20;;;;;;5053383;28;20833;-77
2021/09/01 08:47:08;;;;;;;12.67;5.90;;;19.20;81.20;;;;;;5053084;28;20429;-76
2021/09/01 08:49:34;;;;;;;10.53;5.47;;;19.30;81.70;;;;;;5053301;28;20449;-76
2021/09/01 08:52:03;;;;;;;12.63;6.10;;;19.20;81.20;;;;;;5052930;28;20476;-76
2021/09/01 08:54:30;;;;;;;14.70;6.40;;;19.30;81.80;;;;;;5053102;28;20430;-76
2021/09/01 08:56:56;;;;;;;12.07;6.10;;;19.30;81.30;;;;;;5052770;28;20893;-76
2021/09/01 08:59:23;;;;;;;11.63;5.90;;;19.30;80.90;;;;;;5053083;28;20426;-77
2021/09/01 09:01:53;;;;;;;10.50;5.13;;;19.30;80.90;;;;;;5053009;28;20465;-77
2021/09/01 09:04:21;;;;;;;8.93;5.67;;;19.30;80.60;;;;;;5052711;28;20924;-76
2021/09/01 09:06:50;;;;;;;13.03;6.10;;;19.40;80.80;;;;;;5053048;28;20503;-77
2021/09/01 09:09:20;;;;;;;13.13;6.07;;;19.40;80.80;;;;;;5053786;28;20452;-76
2021/09/01 09:11:47;;;;;;;10.80;5.90;;;19.50;80.40;;;;;;5056668;28;20484;-77
2021/09/01 09:14:23;;;;;;;9.40;7.20;;;19.50;79.80;;;;;;5056957;28;20450;-77
2021/09/01 09:17:05;;;;;;;9.80;5.93;;;19.60;79.60;;;;;;5056735;28;20464;-77
2021/09/01 09:19:52;;;;;;;9.33;6.83;;;19.70;80.00;;;;;;5056850;28;20422;-77
2021/09/01 09:22:22;;;;;;;9.90;5.50;;;19.70;79.80;;;;;;5056532;28;20487;-76
2021/09/01 09:25:12;;;;;;;12.43;6.63;;;19.80;79.50;;;;;;5056580;28;20567;-77
2021/09/01 09:27:45;;;;;;;10.87;6.03;;;20.00;79.50;;;;;;5056683;28;20505;-77
2021/09/01 09:30:30;;;;;;;12.67;5.83;;;20.00;78.50;;;;;;5056575;28;20528;-77
2021/09/01 09:32:58;;;;;;;9.63;5.23;;;20.10;77.30;;;;;;5056263;28;20915;-77
2021/09/01 09:35:26;;;;;;;7.27;4.77;;;20.10;77.20;;;;;;5056422;28;20826;-77
2021/09/01 09:38:04;;;;;;;9.40;5.10;;;20.20;77.00;;;;;;5056278;28;20448;-77
2021/09/01 09:40:34;;;;;;;7.97;5.03;;;20.30;77.00;;;;;;5056301;28;20813;-76
2021/09/01 09:43:13;;;;;;;11.60;5.30;;;20.40;77.00;;;;;;5055758;28;20944;-77
2021/09/01 09:45:40;;;;;;;11.17;5.07;;;20.50;77.10;;;;;;5056434;28;20429;-77
2021/09/01 09:48:07;;;;;;;9.33;5.60;;;20.60;76.10;;;;;;5056396;28;20457;-77
2021/09/01 09:50:34;;;;;;;7.37;4.70;;;20.70;75.90;;;;;;5056130;28;20434;-76
2021/09/01 09:53:01;;;;;;;9.13;4.50;;;20.80;74.80;;;;;;5056107;28;20460;-77
2021/09/01 09:55:28;;;;;;;13.50;4.57;;;20.90;74.30;;;;;;5056192;28;20441;-77
2021/09/01 09:58:00;;;;;;;7.53;4.87;;;21.00;73.90;;;;;;5055914;28;20468;-77
2021/09/01 10:00:27;;;;;;;6.57;4.47;;;21.10;73.50;;;;;;5055787;28;20965;-77
2021/09/01 10:02:54;;;;;;;11.37;5.00;;;21.10;72.40;;;;;;5055845;28;20474;-77
2021/09/01 10:05:23;;;;;;;8.50;4.60;;;21.30;71.90;;;;;;5055878;28;20453;-77
2021/09/01 10:07:50;;;;;;;10.17;5.23;;;21.40;71.90;;;;;;5055837;28;20461;-77
2021/09/01 10:10:18;;;;;;;11.00;5.03;;;21.60;71.20;;;;;;5055366;28;20458;-77
2021/09/01 10:12:46;;;;;;;8.13;4.93;;;21.70;70.40;;;;;;5056009;28;20465;-77
2021/09/01 10:15:20;;;;;;;13.37;4.90;;;21.80;69.00;;;;;;5055953;28;20453;-77
2021/09/01 10:17:50;;;;;;;9.50;5.67;;;21.90;68.20;;;;;;5056026;28;20410;-77
2021/09/01 10:20:21;;;;;;;8.77;4.10;;;22.00;67.30;;;;;;5056425;28;20426;-77
2021/09/01 10:22:59;;;;;;;9.20;5.07;;;22.20;66.50;;;;;;5055214;28;20465;-77
2021/09/01 10:25:34;;;;;;;5.87;3.30;;;22.40;66.20;;;;;;5055803;28;20790;-77
2021/09/01 10:28:34;;;;;;;6.20;3.50;;;22.60;66.70;;;;;;5055476;28;20430;-77
2021/09/01 10:31:22;;;;;;;4.30;3.37;;;22.80;65.80;;;;;;5055579;28;20478;-77
2021/09/01 10:33:51;;;;;;;5.20;3.67;;;23.00;63.90;;;;;;5055412;28;20792;-77
2021/09/01 10:36:55;;;;;;;5.23;3.30;;;23.10;62.20;;;;;;5055317;28;20450;-77
2021/09/01 10:39:38;;;;;;;9.40;4.17;;;23.20;61.50;;;;;;5055569;28;20422;-77
2021/09/01 10:42:37;;;;;;;5.20;4.10;;;23.20;62.00;;;;;;5053290;28;20465;-77
2021/09/01 10:45:07;;;;;;;8.37;4.60;;;23.30;62.20;;;;;;5055020;28;20481;-77
2021/09/01 10:48:05;;;;;;;7.00;4.40;;;23.40;61.80;;;;;;5055189;28;20449;-77
2021/09/01 10:50:33;;;;;;;7.73;4.63;;;23.40;59.80;;;;;;5055521;28;20411;-77
2021/09/01 10:53:03;;;;;;;8.30;5.03;;;23.30;59.90;;;;;;5055729;28;20437;-77
2021/09/01 10:55:33;;;;;;;5.47;3.80;;;23.40;60.60;;;;;;5055277;28;20426;-79
2021/09/01 10:58:17;;;;;;;4.57;3.63;;;23.50;60.60;;;;;;5057808;28;20812;-79
2021/09/01 11:00:44;;;;;;;8.70;4.40;;;23.60;60.70;;;;;;5054571;28;20436;-77
2021/09/01 11:03:12;;;;;;;8.10;5.00;;;23.60;60.50;;;;;;5055028;28;20422;-77
2021/09/01 11:05:39;;;;;;;8.20;4.37;;;23.60;59.90;;;;;;5054508;28;20963;-77
2021/09/01 11:08:06;;;;;;;7.70;4.90;;;23.70;60.20;;;;;;5054521;28;20438;-77
2021/09/01 11:10:33;;;;;;;6.00;3.97;;;23.60;59.50;;;;;;5054504;28;20458;-77
2021/09/01 11:13:01;;;;;;;10.10;4.33;;;23.60;59.10;;;;;;5054832;28;20966;-77
2021/09/01 11:15:29;;;;;;;10.63;4.50;;;23.50;58.60;;;;;;5054766;28;20456;-77
2021/09/01 11:18:06;;;;;;;6.23;4.50;;;23.50;58.70;;;;;;5054746;28;20440;-77
2021/09/01 11:20:34;;;;;;;5.83;3.70;;;23.40;59.20;;;;;;5054710;28;20472;-77
2021/09/01 11:23:03;;;;;;;7.10;4.60;;;23.40;59.50;;;;;;5054570;28;20449;-77
2021/09/01 11:25:30;;;;;;;10.77;4.47;;;23.40;60.00;;;;;;5054693;28;20517;-77
2021/09/01 11:27:58;;;;;;;7.17;5.00;;;23.40;60.30;;;;;;5054418;28;20970;-77
2021/09/01 11:30:33;;;;;;;10.00;5.30;;;23.40;60.10;;;;;;5054413;28;20433;-77
2021/09/01 11:33:00;;;;;;;6.73;4.20;;;23.30;59.40;;;;;;5053449;28;20472;-77
2021/09/01 11:35:29;;;;;;;6.73;4.30;;;23.20;59.10;;;;;;5054440;28;20434;-77
2021/09/01 11:37:59;;;;;;;6.87;3.80;;;23.00;59.50;;;;;;5054144;28;20453;-77
2021/09/01 11:40:32;;;;;;;9.60;4.47;;;22.90;59.80;;;;;;5054449;28;20448;-78
2021/09/01 11:42:59;;;;;;;10.97;3.90;;;22.80;61.20;;;;;;5054227;28;20575;-78
2021/09/01 11:45:26;;;;;;;8.70;5.23;;;22.70;62.00;;;;;;5054142;28;20473;-77
2021/09/01 11:47:59;;;;;;;4.73;4.10;;;22.70;62.10;;;;;;5054416;28;20429;-77
2021/09/01 11:50:26;;;;;;;6.70;4.60;;;22.70;62.40;;;;;;5054168;28;20484;-77
2021/09/01 11:52:54;;;;;;;11.40;5.00;;;22.70;62.70;;;;;;5054042;28;20465;-77
2021/09/01 11:55:26;;;;;;;8.90;5.83;;;22.70;62.70;;;;;;5053987;28;20442;-77
2021/09/01 11:57:53;;;;;;;9.27;4.97;;;22.70;63.10;;;;;;5053461;28;20444;-77
2021/09/01 12:00:20;;;;;;;8.17;4.63;;;22.70;63.40;;;;;;5053952;28;20441;-77
2021/09/01 12:02:50;;;;;;;8.43;4.50;;;22.60;64.60;;;;;;5053793;28;20480;-78
2021/09/01 12:05:29;;;;;;;9.70;4.83;;;22.60;63.40;;;;;;5053894;28;20516;-77
2021/09/01 12:07:56;;;;;;;9.00;5.13;;;22.50;63.20;;;;;;5053936;28;20430;-77
2021/09/01 12:10:27;;;;;;;10.43;5.00;;;22.50;64.40;;;;;;5053431;28;20886;-77
2021/09/01 12:13:00;;;;;;;6.83;4.40;;;22.40;63.70;;;;;;5053572;28;20469;-77
2021/09/01 12:15:26;;;;;;;9.50;4.23;;;22.40;64.40;;;;;;5053521;28;20426;-77
2021/09/01 12:18:01;;;;;;;9.43;5.30;;;22.30;64.30;;;;;;5054191;28;20457;-77
2021/09/01 12:20:28;;;;;;;9.03;5.17;;;22.30;64.30;;;;;;5054526;28;20437;-78
2021/09/01 12:22:55;;;;;;;6.90;4.80;;;22.30;64.70;;;;;;5054305;28;20454;-78
2021/09/01 12:25:25;;;;;;;6.80;4.50;;;22.30;64.80;;;;;;5053720;28;20503;-77
2021/09/01 12:28:04;;;;;;;7.30;5.87;;;22.30;64.80;;;;;;5053378;28;20480;-77
2021/09/01 12:30:34;;;;;;;12.07;5.63;;;22.30;65.30;;;;;;5054132;28;20442;-77
2021/09/01 12:33:03;;;;;;;7.17;5.50;;;22.20;64.40;;;;;;5053319;28;20426;-77
2021/09/01 12:35:32;;;;;;;13.60;6.53;;;22.20;64.30;;;;;;5052876;28;20955;-77
2021/09/01 12:38:00;;;;;;;8.20;5.60;;;22.20;65.20;;;;;;5053168;28;20503;-77
2021/09/01 12:40:30;;;;;;;7.27;5.57;;;22.20;63.60;;;;;;5053382;28;20434;-77
2021/09/01 12:42:59;;;;;;;8.60;5.70;;;22.20;64.30;;;;;;5053281;28;20465;-77
2021/09/01 12:45:26;;;;;;;7.63;6.87;;;22.20;65.20;;;;;;5055774;28;20473;-77
2021/09/01 12:47:55;;;;;;;9.63;5.63;;;22.30;65.30;;;;;;5057294;28;20433;-77